Terminal Aerodrome Forecast
Issued by NWS

Home | Current Version | Previous Version | Text Only | Print | Product List | Glossary On
Versions: 1 2 3 4 5 6 7 8 9 10
000
FTUS45 KTFX 151720
TAFBZN
TAF
KBZN 151720Z 1518/1624 VRB06KT P6SM SCT250
     FM152000 22012G22KT P6SM FEW200
     FM160300 16009KT P6SM FEW200=

USA.gov is the U.S. government's official web portal to all federal, state and local government web resources and services.